Four Oaks, NC (27524)

2:18 PM EST on February 09, 2016 (GMT -0500)
Moore Farm | | Change Station
CLOSE
Current Station
Personal Weather Station
Location: Four Oaks, NC
Elevation: 141 ft
Nearby Weather Stations

Elev 141 ft 35.41 °N, 78.39 °W | Updated 2 minutes ago

Overcast
Overcast
44.0 °F
Feels Like 38 °F
N
11.0
Wind Variable Wind from West
Gusts 11.0 mph

Today
High -- | Low -- °F
--% Chance of Precip.
Yesterday
High -- | Low -- °F
Precip. -- in
Pressure 29.61 in
Visibility 10.0 miles
Clouds Scattered Clouds 4400 ft
Mostly Cloudy 5000 ft
Overcast 6500 ft
Windchill 38 °F
Dew Point 28 °F
Humidity 53%
Rainfall 0.00 in
Snow Depth Not available.
7:06 AM 5:49 PM
New Moon, 2% visible
METAR KJNX 091855Z AUTO 23011G18KT 200V260 10SM SCT044 BKN050 OVC065 07/M01 A2961 RMK AO2
Pressure 29.61 in
Visibility 10.0 miles
Clouds Scattered Clouds 4400 ft
Mostly Cloudy 5000 ft
Overcast 6500 ft
Windchill 38 °F
Dew Point 28 °F
Humidity 53%
Rainfall 0.00 in
Snow Depth Not available.
7:06 AM 5:49 PM
New Moon, 2% visible
METAR KJNX 091855Z AUTO 23011G18KT 200V260 10SM SCT044 BKN050 OVC065 07/M01 A2961 RMK AO2

10-Day Weather Forecast

Almanac

Astronomy

Feb. 09, 2016 Rise Set
Actual Time
Civil Twilight
Nautical Twilight
Astronomical Twilight
Moon
Length of Visible Light
Length of Day
Tomorrow will be .
, % of the Moon is Illuminated

Today's Extremes

State Highs State Lows

Community

WunderPhotos

Upload Photos

1,891,666 photos uploaded!

WunderBlog® & News

Nearby

Air Quality

  Air Quality AQ Index Pollutant
Not available.

Snow Depth

Station Depth Elevation

Earthquake Activity

City Distance Mag. Time & Date
Minimum magnitude displayed is 2.5.

Coastal Water Temperatures

Place Temperature

Stations

Nearby Weather Stations

Station Location Temp. Windchill Dew Point Humidity Wind Precip. Elev Updated Type
                   

Watches & Warnings

There are currently no watches in effect.